sensor_id;sensor_type;location;lat;lon;timestamp;P1;durP1;ratioP1;P2;durP2;ratioP2
11935;SDS011;6027;48.576;9.180;2022-09-21T00:00:43;7.30;;;4.40;;
11935;SDS011;6027;48.576;9.180;2022-09-21T00:03:09;6.77;;;4.50;;
11935;SDS011;6027;48.576;9.180;2022-09-21T00:05:35;9.03;;;5.40;;
11935;SDS011;6027;48.576;9.180;2022-09-21T00:08:02;7.60;;;5.35;;
11935;SDS011;6027;48.576;9.180;2022-09-21T00:10:29;6.00;;;5.10;;
11935;SDS011;6027;48.576;9.180;2022-09-21T00:12:55;7.40;;;5.73;;
11935;SDS011;6027;48.576;9.180;2022-09-21T00:17:55;6.70;;;5.13;;
11935;SDS011;6027;48.576;9.180;2022-09-21T00:20:22;5.67;;;4.53;;
11935;SDS011;6027;48.576;9.180;2022-09-21T00:22:49;5.27;;;4.77;;
11935;SDS011;6027;48.576;9.180;2022-09-21T00:25:15;6.43;;;5.40;;
11935;SDS011;6027;48.576;9.180;2022-09-21T00:27:41;5.47;;;4.90;;
11935;SDS011;6027;48.576;9.180;2022-09-21T00:30:07;6.13;;;4.63;;
11935;SDS011;6027;48.576;9.180;2022-09-21T00:32:34;4.77;;;4.03;;
11935;SDS011;6027;48.576;9.180;2022-09-21T00:35:01;6.37;;;4.63;;
11935;SDS011;6027;48.576;9.180;2022-09-21T00:37:28;4.60;;;3.77;;
11935;SDS011;6027;48.576;9.180;2022-09-21T00:39:53;7.50;;;3.90;;
11935;SDS011;6027;48.576;9.180;2022-09-21T00:42:20;5.00;;;3.90;;
11935;SDS011;6027;48.576;9.180;2022-09-21T00:44:47;7.23;;;4.00;;
11935;SDS011;6027;48.576;9.180;2022-09-21T00:47:14;6.37;;;3.80;;
11935;SDS011;6027;48.576;9.180;2022-09-21T00:49:45;5.23;;;4.00;;
11935;SDS011;6027;48.576;9.180;2022-09-21T00:52:14;6.50;;;4.00;;
11935;SDS011;6027;48.576;9.180;2022-09-21T00:54:50;4.40;;;4.00;;
11935;SDS011;6027;48.576;9.180;2022-09-21T00:57:19;5.87;;;3.60;;
11935;SDS011;6027;48.576;9.180;2022-09-21T00:59:49;4.73;;;3.97;;
11935;SDS011;6027;48.576;9.180;2022-09-21T01:02:18;4.47;;;4.00;;
11935;SDS011;6027;48.576;9.180;2022-09-21T01:04:44;5.93;;;4.20;;
11935;SDS011;6027;48.576;9.180;2022-09-21T01:07:12;5.13;;;4.33;;
11935;SDS011;6027;48.576;9.180;2022-09-21T01:09:42;6.37;;;4.57;;
11935;SDS011;6027;48.576;9.180;2022-09-21T01:15:31;6.93;;;4.20;;
11935;SDS011;6027;48.576;9.180;2022-09-21T01:31:30;7.10;;;3.90;;
11935;SDS011;6027;48.576;9.180;2022-09-21T01:34:04;5.47;;;4.30;;
11935;SDS011;6027;48.576;9.180;2022-09-21T01:36:35;7.17;;;3.80;;
11935;SDS011;6027;48.576;9.180;2022-09-21T01:39:06;5.17;;;3.97;;
11935;SDS011;6027;48.576;9.180;2022-09-21T01:41:36;6.03;;;3.93;;
11935;SDS011;6027;48.576;9.180;2022-09-21T01:44:08;5.30;;;3.50;;
11935;SDS011;6027;48.576;9.180;2022-09-21T01:46:39;8.70;;;4.07;;
11935;SDS011;6027;48.576;9.180;2022-09-21T01:49:10;6.30;;;4.20;;
11935;SDS011;6027;48.576;9.180;2022-09-21T01:51:40;6.20;;;4.23;;
11935;SDS011;6027;48.576;9.180;2022-09-21T01:54:15;5.03;;;3.63;;
11935;SDS011;6027;48.576;9.180;2022-09-21T01:56:47;5.77;;;3.60;;
11935;SDS011;6027;48.576;9.180;2022-09-21T01:59:21;5.17;;;4.00;;
11935;SDS011;6027;48.576;9.180;2022-09-21T02:01:58;7.17;;;4.23;;
11935;SDS011;6027;48.576;9.180;2022-09-21T02:04:27;4.57;;;4.10;;
11935;SDS011;6027;48.576;9.180;2022-09-21T02:06:53;4.70;;;3.67;;
11935;SDS011;6027;48.576;9.180;2022-09-21T02:09:19;6.07;;;3.90;;
11935;SDS011;6027;48.576;9.180;2022-09-21T02:11:45;4.43;;;4.03;;
11935;SDS011;6027;48.576;9.180;2022-09-21T02:14:10;5.60;;;4.40;;
11935;SDS011;6027;48.576;9.180;2022-09-21T02:16:39;4.33;;;3.93;;
11935;SDS011;6027;48.576;9.180;2022-09-21T02:24:43;4.83;;;4.00;;
11935;SDS011;6027;48.576;9.180;2022-09-21T02:27:17;6.70;;;4.23;;
11935;SDS011;6027;48.576;9.180;2022-09-21T02:32:36;4.07;;;3.53;;
11935;SDS011;6027;48.576;9.180;2022-09-21T02:35:15;5.00;;;3.70;;
11935;SDS011;6027;48.576;9.180;2022-09-21T02:37:54;4.70;;;3.80;;
11935;SDS011;6027;48.576;9.180;2022-09-21T02:43:02;4.73;;;4.07;;
11935;SDS011;6027;48.576;9.180;2022-09-21T02:45:43;5.87;;;4.40;;
11935;SDS011;6027;48.576;9.180;2022-09-21T02:48:19;9.03;;;4.80;;
11935;SDS011;6027;48.576;9.180;2022-09-21T02:50:52;4.50;;;4.10;;
11935;SDS011;6027;48.576;9.180;2022-09-21T02:53:23;6.07;;;4.53;;
11935;SDS011;6027;48.576;9.180;2022-09-21T02:55:59;6.10;;;4.37;;
11935;SDS011;6027;48.576;9.180;2022-09-21T02:58:31;8.70;;;7.07;;
11935;SDS011;6027;48.576;9.180;2022-09-21T03:01:01;7.70;;;4.90;;
11935;SDS011;6027;48.576;9.180;2022-09-21T03:03:33;6.07;;;4.57;;
11935;SDS011;6027;48.576;9.180;2022-09-21T03:05:58;5.93;;;4.50;;
11935;SDS011;6027;48.576;9.180;2022-09-21T03:08:26;6.57;;;4.60;;
11935;SDS011;6027;48.576;9.180;2022-09-21T03:10:52;7.80;;;4.77;;
11935;SDS011;6027;48.576;9.180;2022-09-21T03:13:18;5.30;;;4.57;;
11935;SDS011;6027;48.576;9.180;2022-09-21T03:15:44;5.70;;;4.67;;
11935;SDS011;6027;48.576;9.180;2022-09-21T03:18:09;5.37;;;4.50;;
11935;SDS011;6027;48.576;9.180;2022-09-21T03:20:40;6.03;;;4.80;;
11935;SDS011;6027;48.576;9.180;2022-09-21T03:23:11;6.27;;;4.70;;
11935;SDS011;6027;48.576;9.180;2022-09-21T03:25:37;5.37;;;4.87;;
11935;SDS011;6027;48.576;9.180;2022-09-21T03:28:02;6.70;;;5.10;;
11935;SDS011;6027;48.576;9.180;2022-09-21T03:30:28;6.00;;;4.83;;
11935;SDS011;6027;48.576;9.180;2022-09-21T03:32:55;5.37;;;4.87;;
11935;SDS011;6027;48.576;9.180;2022-09-21T03:35:21;5.17;;;4.67;;
11935;SDS011;6027;48.576;9.180;2022-09-21T03:37:48;4.90;;;4.50;;
11935;SDS011;6027;48.576;9.180;2022-09-21T03:40:14;6.67;;;4.80;;
11935;SDS011;6027;48.576;9.180;2022-09-21T03:42:41;6.30;;;5.23;;
11935;SDS011;6027;48.576;9.180;2022-09-21T03:45:08;5.57;;;5.03;;
11935;SDS011;6027;48.576;9.180;2022-09-21T03:47:35;4.80;;;4.40;;
11935;SDS011;6027;48.576;9.180;2022-09-21T03:50:02;6.20;;;4.70;;
11935;SDS011;6027;48.576;9.180;2022-09-21T03:52:28;8.40;;;4.70;;
11935;SDS011;6027;48.576;9.180;2022-09-21T03:54:54;8.43;;;5.60;;
11935;SDS011;6027;48.576;9.180;2022-09-21T03:57:19;6.40;;;5.27;;
11935;SDS011;6027;48.576;9.180;2022-09-21T03:59:45;9.77;;;7.00;;
11935;SDS011;6027;48.576;9.180;2022-09-21T04:02:10;9.40;;;6.93;;
11935;SDS011;6027;48.576;9.180;2022-09-21T04:04:36;10.37;;;7.40;;
11935;SDS011;6027;48.576;9.180;2022-09-21T04:07:01;7.60;;;5.43;;
11935;SDS011;6027;48.576;9.180;2022-09-21T04:09:27;7.53;;;4.97;;
11935;SDS011;6027;48.576;9.180;2022-09-21T04:11:52;12.30;;;7.77;;
11935;SDS011;6027;48.576;9.180;2022-09-21T04:14:18;8.17;;;6.10;;
11935;SDS011;6027;48.576;9.180;2022-09-21T04:16:44;10.97;;;6.20;;
11935;SDS011;6027;48.576;9.180;2022-09-21T04:19:10;10.57;;;6.63;;
11935;SDS011;6027;48.576;9.180;2022-09-21T04:21:36;12.87;;;8.83;;
11935;SDS011;6027;48.576;9.180;2022-09-21T04:24:02;17.63;;;8.60;;
11935;SDS011;6027;48.576;9.180;2022-09-21T04:26:29;14.67;;;7.53;;
11935;SDS011;6027;48.576;9.180;2022-09-21T04:28:56;9.20;;;6.30;;
11935;SDS011;6027;48.576;9.180;2022-09-21T04:31:24;11.17;;;5.87;;
11935;SDS011;6027;48.576;9.180;2022-09-21T04:33:51;9.07;;;5.80;;
11935;SDS011;6027;48.576;9.180;2022-09-21T04:36:17;8.93;;;6.10;;
11935;SDS011;6027;48.576;9.180;2022-09-21T04:38:44;8.63;;;5.83;;
11935;SDS011;6027;48.576;9.180;2022-09-21T04:41:10;37.60;;;33.73;;
11935;SDS011;6027;48.576;9.180;2022-09-21T04:43:37;58.97;;;52.87;;
11935;SDS011;6027;48.576;9.180;2022-09-21T04:46:06;21.77;;;18.03;;
11935;SDS011;6027;48.576;9.180;2022-09-21T04:48:33;22.80;;;18.10;;
11935;SDS011;6027;48.576;9.180;2022-09-21T04:50:59;33.03;;;27.53;;
11935;SDS011;6027;48.576;9.180;2022-09-21T04:53:25;26.17;;;21.33;;
11935;SDS011;6027;48.576;9.180;2022-09-21T04:55:50;22.73;;;17.00;;
11935;SDS011;6027;48.576;9.180;2022-09-21T04:58:16;16.80;;;14.60;;
11935;SDS011;6027;48.576;9.180;2022-09-21T05:00:41;22.67;;;14.03;;
11935;SDS011;6027;48.576;9.180;2022-09-21T05:03:07;16.53;;;12.87;;
11935;SDS011;6027;48.576;9.180;2022-09-21T05:05:32;12.30;;;11.00;;
11935;SDS011;6027;48.576;9.180;2022-09-21T05:07:58;13.83;;;12.20;;
11935;SDS011;6027;48.576;9.180;2022-09-21T05:10:23;13.33;;;11.47;;
11935;SDS011;6027;48.576;9.180;2022-09-21T05:12:49;14.53;;;11.93;;
11935;SDS011;6027;48.576;9.180;2022-09-21T05:15:16;11.53;;;10.33;;
11935;SDS011;6027;48.576;9.180;2022-09-21T05:17:42;10.50;;;9.50;;
11935;SDS011;6027;48.576;9.180;2022-09-21T05:20:11;11.57;;;10.07;;
11935;SDS011;6027;48.576;9.180;2022-09-21T05:22:36;16.73;;;14.53;;
11935;SDS011;6027;48.576;9.180;2022-09-21T05:25:02;15.83;;;14.10;;
11935;SDS011;6027;48.576;9.180;2022-09-21T05:27:28;18.58;;;16.58;;
11935;SDS011;6027;48.576;9.180;2022-09-21T05:29:53;17.47;;;15.53;;
11935;SDS011;6027;48.576;9.180;2022-09-21T05:32:23;17.93;;;14.37;;
11935;SDS011;6027;48.576;9.180;2022-09-21T05:39:59;11.37;;;9.00;;
11935;SDS011;6027;48.576;9.180;2022-09-21T05:42:25;10.30;;;8.23;;
11935;SDS011;6027;48.576;9.180;2022-09-21T05:44:51;12.47;;;9.90;;
11935;SDS011;6027;48.576;9.180;2022-09-21T05:53:08;10.40;;;8.30;;
11935;SDS011;6027;48.576;9.180;2022-09-21T06:01:07;13.53;;;11.50;;
11935;SDS011;6027;48.576;9.180;2022-09-21T06:03:53;9.57;;;7.87;;
11935;SDS011;6027;48.576;9.180;2022-09-21T06:06:20;7.73;;;6.90;;
11935;SDS011;6027;48.576;9.180;2022-09-21T06:08:46;7.10;;;6.40;;
11935;SDS011;6027;48.576;9.180;2022-09-21T06:11:12;7.13;;;6.43;;
11935;SDS011;6027;48.576;9.180;2022-09-21T06:13:38;10.63;;;7.20;;
11935;SDS011;6027;48.576;9.180;2022-09-21T06:16:05;14.03;;;8.90;;
11935;SDS011;6027;48.576;9.180;2022-09-21T06:18:31;13.87;;;9.43;;
11935;SDS011;6027;48.576;9.180;2022-09-21T06:21:01;12.47;;;11.17;;
11935;SDS011;6027;48.576;9.180;2022-09-21T06:23:27;14.60;;;12.23;;
11935;SDS011;6027;48.576;9.180;2022-09-21T06:25:52;13.00;;;11.63;;
11935;SDS011;6027;48.576;9.180;2022-09-21T06:28:18;11.67;;;9.77;;
11935;SDS011;6027;48.576;9.180;2022-09-21T06:30:49;11.27;;;9.97;;
11935;SDS011;6027;48.576;9.180;2022-09-21T06:33:15;10.10;;;9.10;;
11935;SDS011;6027;48.576;9.180;2022-09-21T06:35:57;11.93;;;8.60;;
11935;SDS011;6027;48.576;9.180;2022-09-21T06:38:27;10.83;;;8.67;;
11935;SDS011;6027;48.576;9.180;2022-09-21T06:40:53;12.10;;;7.83;;
11935;SDS011;6027;48.576;9.180;2022-09-21T06:43:19;8.77;;;7.87;;
11935;SDS011;6027;48.576;9.180;2022-09-21T06:45:56;9.43;;;8.53;;
11935;SDS011;6027;48.576;9.180;2022-09-21T06:48:25;11.90;;;8.93;;
11935;SDS011;6027;48.576;9.180;2022-09-21T06:50:55;10.93;;;8.90;;
11935;SDS011;6027;48.576;9.180;2022-09-21T06:53:22;14.47;;;9.07;;
11935;SDS011;6027;48.576;9.180;2022-09-21T06:55:47;14.70;;;9.90;;
11935;SDS011;6027;48.576;9.180;2022-09-21T06:58:13;14.57;;;10.43;;
11935;SDS011;6027;48.576;9.180;2022-09-21T07:00:39;14.70;;;9.77;;
11935;SDS011;6027;48.576;9.180;2022-09-21T07:03:04;12.53;;;8.90;;
11935;SDS011;6027;48.576;9.180;2022-09-21T07:05:31;15.13;;;9.50;;
11935;SDS011;6027;48.576;9.180;2022-09-21T07:07:58;11.73;;;10.07;;
11935;SDS011;6027;48.576;9.180;2022-09-21T07:10:23;12.90;;;9.43;;
11935;SDS011;6027;48.576;9.180;2022-09-21T07:12:49;12.03;;;9.83;;
11935;SDS011;6027;48.576;9.180;2022-09-21T07:15:16;12.67;;;9.73;;
11935;SDS011;6027;48.576;9.180;2022-09-21T07:17:43;14.17;;;10.33;;
11935;SDS011;6027;48.576;9.180;2022-09-21T07:20:09;13.97;;;10.83;;
11935;SDS011;6027;48.576;9.180;2022-09-21T07:22:35;12.47;;;9.77;;
11935;SDS011;6027;48.576;9.180;2022-09-21T07:25:00;12.27;;;10.57;;
11935;SDS011;6027;48.576;9.180;2022-09-21T07:27:27;11.67;;;10.03;;
11935;SDS011;6027;48.576;9.180;2022-09-21T07:29:54;12.97;;;11.30;;
11935;SDS011;6027;48.576;9.180;2022-09-21T07:32:20;13.80;;;11.87;;
11935;SDS011;6027;48.576;9.180;2022-09-21T07:34:45;15.53;;;12.73;;
11935;SDS011;6027;48.576;9.180;2022-09-21T07:37:11;14.93;;;11.53;;
11935;SDS011;6027;48.576;9.180;2022-09-21T07:39:37;13.07;;;11.60;;
11935;SDS011;6027;48.576;9.180;2022-09-21T07:42:03;14.17;;;11.73;;
11935;SDS011;6027;48.576;9.180;2022-09-21T07:44:29;16.73;;;13.93;;
11935;SDS011;6027;48.576;9.180;2022-09-21T07:46:55;15.67;;;13.27;;
11935;SDS011;6027;48.576;9.180;2022-09-21T07:49:20;16.47;;;13.00;;
11935;SDS011;6027;48.576;9.180;2022-09-21T07:51:46;14.13;;;10.60;;
11935;SDS011;6027;48.576;9.180;2022-09-21T07:54:12;15.47;;;10.87;;
11935;SDS011;6027;48.576;9.180;2022-09-21T07:56:37;11.33;;;9.80;;
11935;SDS011;6027;48.576;9.180;2022-09-21T07:59:03;11.33;;;9.50;;
11935;SDS011;6027;48.576;9.180;2022-09-21T08:01:35;12.70;;;10.33;;
11935;SDS011;6027;48.576;9.180;2022-09-21T08:04:03;11.73;;;9.80;;
11935;SDS011;6027;48.576;9.180;2022-09-21T08:06:31;11.33;;;7.37;;
11935;SDS011;6027;48.576;9.180;2022-09-21T08:08:59;11.17;;;7.90;;
11935;SDS011;6027;48.576;9.180;2022-09-21T08:11:26;8.37;;;7.47;;
11935;SDS011;6027;48.576;9.180;2022-09-21T08:13:53;9.00;;;7.30;;
11935;SDS011;6027;48.576;9.180;2022-09-21T08:18:45;11.73;;;8.27;;
11935;SDS011;6027;48.576;9.180;2022-09-21T08:21:10;10.00;;;7.10;;
11935;SDS011;6027;48.576;9.180;2022-09-21T08:23:36;8.25;;;7.45;;
11935;SDS011;6027;48.576;9.180;2022-09-21T08:26:06;7.90;;;7.07;;
11935;SDS011;6027;48.576;9.180;2022-09-21T08:28:33;7.10;;;6.35;;
11935;SDS011;6027;48.576;9.180;2022-09-21T08:31:01;8.35;;;6.93;;
11935;SDS011;6027;48.576;9.180;2022-09-21T08:33:32;5.78;;;5.07;;
11935;SDS011;6027;48.576;9.180;2022-09-21T08:35:59;7.50;;;4.65;;
11935;SDS011;6027;48.576;9.180;2022-09-21T08:38:25;5.35;;;4.85;;
11935;SDS011;6027;48.576;9.180;2022-09-21T08:40:51;8.05;;;5.22;;
11935;SDS011;6027;48.576;9.180;2022-09-21T08:43:26;7.85;;;4.88;;
11935;SDS011;6027;48.576;9.180;2022-09-21T08:45:59;6.07;;;3.95;;
11935;SDS011;6027;48.576;9.180;2022-09-21T08:48:28;5.60;;;3.95;;
11935;SDS011;6027;48.576;9.180;2022-09-21T08:51:00;5.70;;;3.45;;
11935;SDS011;6027;48.576;9.180;2022-09-21T08:53:32;5.60;;;3.90;;
11935;SDS011;6027;48.576;9.180;2022-09-21T08:56:02;5.00;;;3.60;;
11935;SDS011;6027;48.576;9.180;2022-09-21T08:58:28;5.18;;;3.90;;
11935;SDS011;6027;48.576;9.180;2022-09-21T09:06:28;5.90;;;2.90;;
11935;SDS011;6027;48.576;9.180;2022-09-21T09:22:24;4.60;;;2.42;;
11935;SDS011;6027;48.576;9.180;2022-09-21T09:25:19;4.65;;;2.65;;
11935;SDS011;6027;48.576;9.180;2022-09-21T09:27:47;2.15;;;1.92;;
11935;SDS011;6027;48.576;9.180;2022-09-21T09:30:18;2.80;;;2.00;;
11935;SDS011;6027;48.576;9.180;2022-09-21T09:38:18;2.58;;;1.85;;
11935;SDS011;6027;48.576;9.180;2022-09-21T09:43:43;3.40;;;1.70;;
11935;SDS011;6027;48.576;9.180;2022-09-21T09:51:34;4.10;;;1.70;;
11935;SDS011;6027;48.576;9.180;2022-09-21T09:54:04;3.65;;;2.17;;
11935;SDS011;6027;48.576;9.180;2022-09-21T09:56:30;3.63;;;1.88;;
11935;SDS011;6027;48.576;9.180;2022-09-21T09:58:57;2.70;;;1.70;;
11935;SDS011;6027;48.576;9.180;2022-09-21T10:01:34;2.88;;;1.70;;
11935;SDS011;6027;48.576;9.180;2022-09-21T10:04:07;2.00;;;1.33;;
11935;SDS011;6027;48.576;9.180;2022-09-21T10:06:38;3.03;;;1.40;;
11935;SDS011;6027;48.576;9.180;2022-09-21T10:09:17;2.58;;;1.40;;
11935;SDS011;6027;48.576;9.180;2022-09-21T10:11:43;2.72;;;1.20;;
11935;SDS011;6027;48.576;9.180;2022-09-21T10:14:09;2.50;;;1.20;;
11935;SDS011;6027;48.576;9.180;2022-09-21T10:16:43;4.40;;;1.40;;
11935;SDS011;6027;48.576;9.180;2022-09-21T10:19:13;1.90;;;1.40;;
11935;SDS011;6027;48.576;9.180;2022-09-21T10:21:43;1.92;;;1.15;;
11935;SDS011;6027;48.576;9.180;2022-09-21T10:37:26;2.00;;;1.25;;
11935;SDS011;6027;48.576;9.180;2022-09-21T10:39:53;2.40;;;1.38;;
11935;SDS011;6027;48.576;9.180;2022-09-21T10:42:19;3.80;;;1.60;;
11935;SDS011;6027;48.576;9.180;2022-09-21T10:44:46;1.83;;;1.23;;
11935;SDS011;6027;48.576;9.180;2022-09-21T10:50:04;3.17;;;1.40;;
11935;SDS011;6027;48.576;9.180;2022-09-21T10:52:35;2.38;;;1.40;;
11935;SDS011;6027;48.576;9.180;2022-09-21T10:55:04;3.25;;;1.60;;
11935;SDS011;6027;48.576;9.180;2022-09-21T10:57:32;2.50;;;1.65;;
11935;SDS011;6027;48.576;9.180;2022-09-21T11:00:10;1.80;;;1.30;;
11935;SDS011;6027;48.576;9.180;2022-09-21T11:03:00;2.90;;;1.42;;
11935;SDS011;6027;48.576;9.180;2022-09-21T11:05:31;2.78;;;1.50;;
11935;SDS011;6027;48.576;9.180;2022-09-21T11:11:12;1.63;;;1.20;;
11935;SDS011;6027;48.576;9.180;2022-09-21T11:13:52;2.53;;;1.30;;
11935;SDS011;6027;48.576;9.180;2022-09-21T11:16:31;2.00;;;0.95;;
11935;SDS011;6027;48.576;9.180;2022-09-21T11:19:35;3.40;;;0.98;;
11935;SDS011;6027;48.576;9.180;2022-09-21T11:22:29;2.60;;;1.00;;
11935;SDS011;6027;48.576;9.180;2022-09-21T11:25:22;1.92;;;0.82;;
11935;SDS011;6027;48.576;9.180;2022-09-21T11:28:08;2.15;;;0.73;;
11935;SDS011;6027;48.576;9.180;2022-09-21T11:31:24;1.58;;;0.60;;
11935;SDS011;6027;48.576;9.180;2022-09-21T11:39:25;1.92;;;0.80;;
11935;SDS011;6027;48.576;9.180;2022-09-21T11:42:06;2.13;;;0.80;;
11935;SDS011;6027;48.576;9.180;2022-09-21T11:44:43;4.18;;;1.20;;
11935;SDS011;6027;48.576;9.180;2022-09-21T11:53:13;2.90;;;0.80;;
11935;SDS011;6027;48.576;9.180;2022-09-21T12:12:20;1.35;;;0.93;;
11935;SDS011;6027;48.576;9.180;2022-09-21T12:23:02;1.98;;;0.82;;
11935;SDS011;6027;48.576;9.180;2022-09-21T12:25:34;1.45;;;0.82;;
11935;SDS011;6027;48.576;9.180;2022-09-21T12:30:34;1.02;;;0.52;;
11935;SDS011;6027;48.576;9.180;2022-09-21T12:35:45;2.45;;;0.80;;
11935;SDS011;6027;48.576;9.180;2022-09-21T12:41:05;2.05;;;1.02;;
11935;SDS011;6027;48.576;9.180;2022-09-21T12:43:35;3.08;;;0.70;;
11935;SDS011;6027;48.576;9.180;2022-09-21T12:46:04;3.05;;;1.00;;
11935;SDS011;6027;48.576;9.180;2022-09-21T12:48:34;1.67;;;1.00;;
11935;SDS011;6027;48.576;9.180;2022-09-21T12:53:46;2.70;;;1.50;;
11935;SDS011;6027;48.576;9.180;2022-09-21T12:56:18;2.00;;;0.95;;
11935;SDS011;6027;48.576;9.180;2022-09-21T13:02:04;1.73;;;1.02;;
11935;SDS011;6027;48.576;9.180;2022-09-21T13:10:07;1.08;;;0.60;;
11935;SDS011;6027;48.576;9.180;2022-09-21T13:13:03;0.50;;;0.50;;
11935;SDS011;6027;48.576;9.180;2022-09-21T13:15:41;0.35;;;0.35;;
11935;SDS011;6027;48.576;9.180;2022-09-21T13:18:16;1.80;;;0.80;;
11935;SDS011;6027;48.576;9.180;2022-09-21T13:20:46;0.85;;;0.50;;
11935;SDS011;6027;48.576;9.180;2022-09-21T13:23:16;1.13;;;0.70;;
11935;SDS011;6027;48.576;9.180;2022-09-21T13:25:48;0.70;;;0.50;;
11935;SDS011;6027;48.576;9.180;2022-09-21T13:28:22;1.33;;;0.70;;
11935;SDS011;6027;48.576;9.180;2022-09-21T13:33:38;1.05;;;0.55;;
11935;SDS011;6027;48.576;9.180;2022-09-21T13:39:17;0.82;;;0.60;;
11935;SDS011;6027;48.576;9.180;2022-09-21T13:41:43;0.80;;;0.60;;
11935;SDS011;6027;48.576;9.180;2022-09-21T13:44:51;2.08;;;0.40;;
11935;SDS011;6027;48.576;9.180;2022-09-21T13:46:57;0.70;;;0.60;;
11935;SDS011;6027;48.576;9.180;2022-09-21T13:49:31;0.80;;;0.60;;
11935;SDS011;6027;48.576;9.180;2022-09-21T13:57:46;0.52;;;0.50;;
11935;SDS011;6027;48.576;9.180;2022-09-21T14:02:37;0.80;;;0.70;;
11935;SDS011;6027;48.576;9.180;2022-09-21T14:05:07;0.50;;;0.50;;
11935;SDS011;6027;48.576;9.180;2022-09-21T14:07:53;0.80;;;0.70;;
11935;SDS011;6027;48.576;9.180;2022-09-21T14:10:21;0.82;;;0.60;;
11935;SDS011;6027;48.576;9.180;2022-09-21T14:12:47;1.63;;;0.70;;
11935;SDS011;6027;48.576;9.180;2022-09-21T14:18:33;0.73;;;0.50;;
11935;SDS011;6027;48.576;9.180;2022-09-21T14:26:34;0.93;;;0.70;;
11935;SDS011;6027;48.576;9.180;2022-09-21T14:29:12;0.77;;;0.70;;
11935;SDS011;6027;48.576;9.180;2022-09-21T14:31:45;1.02;;;0.70;;
11935;SDS011;6027;48.576;9.180;2022-09-21T14:34:17;2.20;;;0.65;;
11935;SDS011;6027;48.576;9.180;2022-09-21T14:36:47;0.52;;;0.52;;
11935;SDS011;6027;48.576;9.180;2022-09-21T14:39:19;0.80;;;0.73;;
11935;SDS011;6027;48.576;9.180;2022-09-21T14:41:46;0.50;;;0.50;;
11935;SDS011;6027;48.576;9.180;2022-09-21T14:44:18;1.00;;;0.50;;
11935;SDS011;6027;48.576;9.180;2022-09-21T14:58:28;1.02;;;0.55;;
11935;SDS011;6027;48.576;9.180;2022-09-21T15:00:56;5.15;;;0.80;;
11935;SDS011;6027;48.576;9.180;2022-09-21T15:18:01;2.35;;;0.98;;
11935;SDS011;6027;48.576;9.180;2022-09-21T15:22:54;1.10;;;0.70;;
11935;SDS011;6027;48.576;9.180;2022-09-21T15:25:21;1.20;;;0.70;;
11935;SDS011;6027;48.576;9.180;2022-09-21T15:27:48;2.25;;;0.98;;
11935;SDS011;6027;48.576;9.180;2022-09-21T15:30:19;1.65;;;0.80;;
11935;SDS011;6027;48.576;9.180;2022-09-21T15:33:00;1.23;;;0.63;;
11935;SDS011;6027;48.576;9.180;2022-09-21T15:35:27;1.17;;;0.90;;
11935;SDS011;6027;48.576;9.180;2022-09-21T15:37:56;0.82;;;0.80;;
11935;SDS011;6027;48.576;9.180;2022-09-21T15:40:25;0.75;;;0.65;;
11935;SDS011;6027;48.576;9.180;2022-09-21T15:45:50;0.70;;;0.70;;
11935;SDS011;6027;48.576;9.180;2022-09-21T15:48:32;1.17;;;1.00;;
11935;SDS011;6027;48.576;9.180;2022-09-21T15:51:12;0.80;;;0.70;;
11935;SDS011;6027;48.576;9.180;2022-09-21T15:53:44;1.33;;;0.68;;
11935;SDS011;6027;48.576;9.180;2022-09-21T15:56:25;1.13;;;0.90;;
11935;SDS011;6027;48.576;9.180;2022-09-21T15:59:02;0.73;;;0.55;;
11935;SDS011;6027;48.576;9.180;2022-09-21T16:01:36;5.50;;;0.90;;
11935;SDS011;6027;48.576;9.180;2022-09-21T16:04:07;1.88;;;0.63;;
11935;SDS011;6027;48.576;9.180;2022-09-21T16:06:37;0.90;;;0.57;;
11935;SDS011;6027;48.576;9.180;2022-09-21T16:09:40;0.90;;;0.70;;
11935;SDS011;6027;48.576;9.180;2022-09-21T16:15:17;1.13;;;0.80;;
11935;SDS011;6027;48.576;9.180;2022-09-21T16:20:56;3.25;;;0.80;;
11935;SDS011;6027;48.576;9.180;2022-09-21T16:23:32;0.65;;;0.65;;
11935;SDS011;6027;48.576;9.180;2022-09-21T16:25:58;1.27;;;0.70;;
11935;SDS011;6027;48.576;9.180;2022-09-21T16:28:33;1.73;;;1.00;;
11935;SDS011;6027;48.576;9.180;2022-09-21T16:31:26;2.35;;;0.90;;
11935;SDS011;6027;48.576;9.180;2022-09-21T16:38:58;0.77;;;0.77;;
11935;SDS011;6027;48.576;9.180;2022-09-21T16:41:34;0.88;;;0.80;;
11935;SDS011;6027;48.576;9.180;2022-09-21T16:44:08;2.63;;;0.90;;
11935;SDS011;6027;48.576;9.180;2022-09-21T16:46:40;1.17;;;0.90;;
11935;SDS011;6027;48.576;9.180;2022-09-21T16:49:09;1.08;;;0.98;;
11935;SDS011;6027;48.576;9.180;2022-09-21T16:51:40;1.75;;;0.68;;
11935;SDS011;6027;48.576;9.180;2022-09-21T16:54:06;1.08;;;0.73;;
11935;SDS011;6027;48.576;9.180;2022-09-21T16:56:32;2.45;;;0.80;;
11935;SDS011;6027;48.576;9.180;2022-09-21T16:58:59;0.90;;;0.70;;
11935;SDS011;6027;48.576;9.180;2022-09-21T17:01:27;1.10;;;0.90;;
11935;SDS011;6027;48.576;9.180;2022-09-21T17:03:54;2.00;;;1.40;;
11935;SDS011;6027;48.576;9.180;2022-09-21T17:06:20;2.03;;;1.48;;
11935;SDS011;6027;48.576;9.180;2022-09-21T17:08:47;1.30;;;1.20;;
11935;SDS011;6027;48.576;9.180;2022-09-21T17:11:17;1.67;;;1.10;;
11935;SDS011;6027;48.576;9.180;2022-09-21T17:13:47;4.28;;;1.20;;
11935;SDS011;6027;48.576;9.180;2022-09-21T17:16:13;2.17;;;1.58;;
11935;SDS011;6027;48.576;9.180;2022-09-21T17:18:46;2.15;;;1.50;;
11935;SDS011;6027;48.576;9.180;2022-09-21T17:21:12;2.75;;;1.10;;
11935;SDS011;6027;48.576;9.180;2022-09-21T17:23:38;1.42;;;1.10;;
11935;SDS011;6027;48.576;9.180;2022-09-21T17:26:16;1.20;;;1.00;;
11935;SDS011;6027;48.576;9.180;2022-09-21T17:28:43;1.40;;;0.95;;
11935;SDS011;6027;48.576;9.180;2022-09-21T17:31:13;2.25;;;1.00;;
11935;SDS011;6027;48.576;9.180;2022-09-21T17:33:40;2.92;;;1.10;;
11935;SDS011;6027;48.576;9.180;2022-09-21T17:36:10;3.72;;;1.45;;
11935;SDS011;6027;48.576;9.180;2022-09-21T17:38:38;1.92;;;1.65;;
11935;SDS011;6027;48.576;9.180;2022-09-21T17:41:05;3.13;;;1.00;;
11935;SDS011;6027;48.576;9.180;2022-09-21T17:43:51;6.15;;;1.65;;
11935;SDS011;6027;48.576;9.180;2022-09-21T17:46:59;3.42;;;2.13;;
11935;SDS011;6027;48.576;9.180;2022-09-21T17:49:33;11.70;;;7.38;;
11935;SDS011;6027;48.576;9.180;2022-09-21T17:51:59;11.23;;;7.55;;
11935;SDS011;6027;48.576;9.180;2022-09-21T17:54:43;17.17;;;9.25;;
11935;SDS011;6027;48.576;9.180;2022-09-21T18:02:32;17.08;;;8.90;;
11935;SDS011;6027;48.576;9.180;2022-09-21T18:04:59;21.10;;;11.65;;
11935;SDS011;6027;48.576;9.180;2022-09-21T18:07:28;27.90;;;14.82;;
11935;SDS011;6027;48.576;9.180;2022-09-21T18:09:54;24.60;;;13.43;;
11935;SDS011;6027;48.576;9.180;2022-09-21T18:12:32;23.20;;;11.15;;
11935;SDS011;6027;48.576;9.180;2022-09-21T18:15:10;14.90;;;9.70;;
11935;SDS011;6027;48.576;9.180;2022-09-21T18:25:46;10.25;;;7.13;;
11935;SDS011;6027;48.576;9.180;2022-09-21T18:28:33;8.65;;;6.80;;
11935;SDS011;6027;48.576;9.180;2022-09-21T18:34:02;7.13;;;5.80;;
11935;SDS011;6027;48.576;9.180;2022-09-21T18:39:37;7.70;;;6.30;;
11935;SDS011;6027;48.576;9.180;2022-09-21T18:42:42;9.68;;;6.45;;
11935;SDS011;6027;48.576;9.180;2022-09-21T18:45:20;6.90;;;5.55;;
11935;SDS011;6027;48.576;9.180;2022-09-21T18:47:53;8.20;;;5.57;;
11935;SDS011;6027;48.576;9.180;2022-09-21T18:56:02;4.85;;;3.65;;
11935;SDS011;6027;48.576;9.180;2022-09-21T18:58:30;3.83;;;2.95;;
11935;SDS011;6027;48.576;9.180;2022-09-21T19:00:55;7.25;;;4.57;;
11935;SDS011;6027;48.576;9.180;2022-09-21T19:03:21;4.55;;;3.30;;
11935;SDS011;6027;48.576;9.180;2022-09-21T19:08:53;4.53;;;3.90;;
11935;SDS011;6027;48.576;9.180;2022-09-21T19:11:31;4.40;;;3.72;;
11935;SDS011;6027;48.576;9.180;2022-09-21T19:14:19;5.72;;;3.60;;
11935;SDS011;6027;48.576;9.180;2022-09-21T19:22:29;8.65;;;5.30;;
11935;SDS011;6027;48.576;9.180;2022-09-21T19:27:53;6.88;;;4.72;;
11935;SDS011;6027;48.576;9.180;2022-09-21T19:30:23;6.35;;;5.10;;
11935;SDS011;6027;48.576;9.180;2022-09-21T19:32:53;13.35;;;9.10;;